sensor_id;sensor_type;location;lat;lon;timestamp;P1;durP1;ratioP1;P2;durP2;ratioP2
53483;SDS011;75581;50.088;19.966;2024-01-15T00:02:02;8.30;;;5.50;;
53483;SDS011;75581;50.088;19.966;2024-01-15T00:04:38;6.60;;;5.40;;
53483;SDS011;75581;50.088;19.966;2024-01-15T00:09:39;8.20;;;5.90;;
53483;SDS011;75581;50.088;19.966;2024-01-15T00:12:08;9.10;;;5.50;;
53483;SDS011;75581;50.088;19.966;2024-01-15T00:14:38;8.00;;;5.40;;
53483;SDS011;75581;50.088;19.966;2024-01-15T00:17:07;8.20;;;5.60;;
53483;SDS011;75581;50.088;19.966;2024-01-15T00:19:36;6.20;;;4.40;;
53483;SDS011;75581;50.088;19.966;2024-01-15T00:22:05;6.50;;;4.70;;
53483;SDS011;75581;50.088;19.966;2024-01-15T00:24:34;8.50;;;5.00;;
53483;SDS011;75581;50.088;19.966;2024-01-15T00:27:04;8.20;;;5.90;;
53483;SDS011;75581;50.088;19.966;2024-01-15T00:29:33;7.60;;;5.60;;
53483;SDS011;75581;50.088;19.966;2024-01-15T00:32:03;6.10;;;4.20;;
53483;SDS011;75581;50.088;19.966;2024-01-15T00:34:32;7.20;;;5.10;;
53483;SDS011;75581;50.088;19.966;2024-01-15T00:37:02;7.00;;;5.10;;
53483;SDS011;75581;50.088;19.966;2024-01-15T00:39:31;7.40;;;5.30;;
53483;SDS011;75581;50.088;19.966;2024-01-15T00:42:00;9.40;;;6.60;;
53483;SDS011;75581;50.088;19.966;2024-01-15T00:44:29;7.80;;;6.00;;
53483;SDS011;75581;50.088;19.966;2024-01-15T00:46:58;6.90;;;4.90;;
53483;SDS011;75581;50.088;19.966;2024-01-15T00:49:27;7.30;;;5.20;;
53483;SDS011;75581;50.088;19.966;2024-01-15T00:51:57;7.70;;;4.90;;
53483;SDS011;75581;50.088;19.966;2024-01-15T00:54:26;6.30;;;4.90;;
53483;SDS011;75581;50.088;19.966;2024-01-15T00:56:55;7.40;;;5.10;;
53483;SDS011;75581;50.088;19.966;2024-01-15T00:59:24;8.50;;;5.30;;
53483;SDS011;75581;50.088;19.966;2024-01-15T01:01:56;6.90;;;5.20;;
53483;SDS011;75581;50.088;19.966;2024-01-15T01:04:25;7.90;;;5.00;;
53483;SDS011;75581;50.088;19.966;2024-01-15T01:06:54;6.30;;;4.70;;
53483;SDS011;75581;50.088;19.966;2024-01-15T01:09:23;8.00;;;5.40;;
53483;SDS011;75581;50.088;19.966;2024-01-15T01:11:53;7.00;;;5.00;;
53483;SDS011;75581;50.088;19.966;2024-01-15T01:14:22;6.60;;;4.90;;
53483;SDS011;75581;50.088;19.966;2024-01-15T01:16:51;7.80;;;4.90;;
53483;SDS011;75581;50.088;19.966;2024-01-15T01:19:20;8.30;;;5.70;;
53483;SDS011;75581;50.088;19.966;2024-01-15T01:21:49;7.50;;;5.70;;
53483;SDS011;75581;50.088;19.966;2024-01-15T01:24:19;8.00;;;6.20;;
53483;SDS011;75581;50.088;19.966;2024-01-15T01:26:48;9.50;;;5.40;;
53483;SDS011;75581;50.088;19.966;2024-01-15T01:29:17;7.40;;;5.20;;
53483;SDS011;75581;50.088;19.966;2024-01-15T01:31:46;8.50;;;6.00;;
53483;SDS011;75581;50.088;19.966;2024-01-15T01:34:16;8.30;;;6.10;;
53483;SDS011;75581;50.088;19.966;2024-01-15T01:36:45;8.70;;;5.80;;
53483;SDS011;75581;50.088;19.966;2024-01-15T01:39:14;8.20;;;5.50;;
53483;SDS011;75581;50.088;19.966;2024-01-15T01:41:43;6.70;;;5.10;;
53483;SDS011;75581;50.088;19.966;2024-01-15T01:44:12;7.40;;;5.40;;
53483;SDS011;75581;50.088;19.966;2024-01-15T01:46:41;8.20;;;5.50;;
53483;SDS011;75581;50.088;19.966;2024-01-15T01:49:11;8.00;;;5.70;;
53483;SDS011;75581;50.088;19.966;2024-01-15T01:51:40;7.10;;;5.30;;
53483;SDS011;75581;50.088;19.966;2024-01-15T01:54:09;6.30;;;4.70;;
53483;SDS011;75581;50.088;19.966;2024-01-15T01:56:41;7.90;;;4.90;;
53483;SDS011;75581;50.088;19.966;2024-01-15T01:59:11;6.70;;;4.30;;
53483;SDS011;75581;50.088;19.966;2024-01-15T02:01:40;5.50;;;4.40;;
53483;SDS011;75581;50.088;19.966;2024-01-15T02:04:13;6.20;;;4.60;;
53483;SDS011;75581;50.088;19.966;2024-01-15T02:06:48;6.90;;;4.60;;
53483;SDS011;75581;50.088;19.966;2024-01-15T02:09:19;5.90;;;4.30;;
53483;SDS011;75581;50.088;19.966;2024-01-15T02:11:48;5.70;;;4.30;;
53483;SDS011;75581;50.088;19.966;2024-01-15T02:14:17;5.80;;;4.20;;
53483;SDS011;75581;50.088;19.966;2024-01-15T02:16:46;5.20;;;3.80;;
53483;SDS011;75581;50.088;19.966;2024-01-15T02:19:16;6.00;;;4.10;;
53483;SDS011;75581;50.088;19.966;2024-01-15T02:21:46;6.70;;;4.20;;
53483;SDS011;75581;50.088;19.966;2024-01-15T02:24:16;6.40;;;4.10;;
53483;SDS011;75581;50.088;19.966;2024-01-15T02:26:45;5.60;;;3.30;;
53483;SDS011;75581;50.088;19.966;2024-01-15T02:29:14;5.30;;;3.90;;
53483;SDS011;75581;50.088;19.966;2024-01-15T02:31:44;5.00;;;3.20;;
53483;SDS011;75581;50.088;19.966;2024-01-15T02:34:13;6.00;;;3.60;;
53483;SDS011;75581;50.088;19.966;2024-01-15T02:36:43;4.30;;;3.00;;
53483;SDS011;75581;50.088;19.966;2024-01-15T02:39:12;5.10;;;3.50;;
53483;SDS011;75581;50.088;19.966;2024-01-15T02:41:41;4.00;;;2.80;;
53483;SDS011;75581;50.088;19.966;2024-01-15T02:44:10;4.30;;;2.90;;
53483;SDS011;75581;50.088;19.966;2024-01-15T02:46:39;3.50;;;2.70;;
53483;SDS011;75581;50.088;19.966;2024-01-15T02:49:08;4.10;;;2.50;;
53483;SDS011;75581;50.088;19.966;2024-01-15T02:51:37;4.50;;;3.20;;
53483;SDS011;75581;50.088;19.966;2024-01-15T02:54:06;3.80;;;2.90;;
53483;SDS011;75581;50.088;19.966;2024-01-15T02:56:35;4.50;;;3.30;;
53483;SDS011;75581;50.088;19.966;2024-01-15T02:59:04;5.40;;;3.30;;
53483;SDS011;75581;50.088;19.966;2024-01-15T03:01:33;4.70;;;3.30;;
53483;SDS011;75581;50.088;19.966;2024-01-15T03:04:02;6.90;;;3.30;;
53483;SDS011;75581;50.088;19.966;2024-01-15T03:06:32;4.50;;;3.20;;
53483;SDS011;75581;50.088;19.966;2024-01-15T03:09:01;4.70;;;3.20;;
53483;SDS011;75581;50.088;19.966;2024-01-15T03:11:38;3.80;;;2.60;;
53483;SDS011;75581;50.088;19.966;2024-01-15T03:14:07;6.00;;;3.40;;
53483;SDS011;75581;50.088;19.966;2024-01-15T03:16:36;3.70;;;2.80;;
53483;SDS011;75581;50.088;19.966;2024-01-15T03:19:05;4.50;;;2.70;;
53483;SDS011;75581;50.088;19.966;2024-01-15T03:21:34;4.90;;;3.40;;
53483;SDS011;75581;50.088;19.966;2024-01-15T03:24:03;5.10;;;3.60;;
53483;SDS011;75581;50.088;19.966;2024-01-15T03:26:33;4.20;;;3.30;;
53483;SDS011;75581;50.088;19.966;2024-01-15T03:29:02;4.70;;;3.40;;
53483;SDS011;75581;50.088;19.966;2024-01-15T03:31:31;4.30;;;2.90;;
53483;SDS011;75581;50.088;19.966;2024-01-15T03:34:00;4.60;;;3.00;;
53483;SDS011;75581;50.088;19.966;2024-01-15T03:36:29;4.10;;;2.80;;
53483;SDS011;75581;50.088;19.966;2024-01-15T03:39:02;3.50;;;2.70;;
53483;SDS011;75581;50.088;19.966;2024-01-15T03:41:31;5.20;;;3.30;;
53483;SDS011;75581;50.088;19.966;2024-01-15T03:44:00;4.30;;;2.70;;
53483;SDS011;75581;50.088;19.966;2024-01-15T03:46:30;4.40;;;2.90;;
53483;SDS011;75581;50.088;19.966;2024-01-15T03:48:59;3.90;;;2.70;;
53483;SDS011;75581;50.088;19.966;2024-01-15T03:51:28;4.90;;;3.30;;
53483;SDS011;75581;50.088;19.966;2024-01-15T03:53:57;4.30;;;2.90;;
53483;SDS011;75581;50.088;19.966;2024-01-15T03:56:26;3.30;;;2.10;;
53483;SDS011;75581;50.088;19.966;2024-01-15T03:58:55;4.20;;;2.90;;
53483;SDS011;75581;50.088;19.966;2024-01-15T04:01:24;3.30;;;2.50;;
53483;SDS011;75581;50.088;19.966;2024-01-15T04:03:54;3.10;;;2.00;;
53483;SDS011;75581;50.088;19.966;2024-01-15T04:06:23;3.80;;;2.20;;
53483;SDS011;75581;50.088;19.966;2024-01-15T04:08:52;4.60;;;2.60;;
53483;SDS011;75581;50.088;19.966;2024-01-15T04:11:21;3.00;;;1.90;;
53483;SDS011;75581;50.088;19.966;2024-01-15T04:13:50;2.60;;;1.90;;
53483;SDS011;75581;50.088;19.966;2024-01-15T04:16:19;3.50;;;2.00;;
53483;SDS011;75581;50.088;19.966;2024-01-15T04:18:48;2.80;;;2.00;;
53483;SDS011;75581;50.088;19.966;2024-01-15T04:21:17;2.80;;;1.80;;
53483;SDS011;75581;50.088;19.966;2024-01-15T04:23:47;2.30;;;1.70;;
53483;SDS011;75581;50.088;19.966;2024-01-15T04:26:16;3.70;;;2.10;;
53483;SDS011;75581;50.088;19.966;2024-01-15T04:28:45;3.40;;;2.30;;
53483;SDS011;75581;50.088;19.966;2024-01-15T04:31:22;2.70;;;2.00;;
53483;SDS011;75581;50.088;19.966;2024-01-15T04:33:53;2.80;;;1.90;;
53483;SDS011;75581;50.088;19.966;2024-01-15T04:36:22;2.60;;;1.60;;
53483;SDS011;75581;50.088;19.966;2024-01-15T04:38:52;3.00;;;2.10;;
53483;SDS011;75581;50.088;19.966;2024-01-15T04:41:21;3.70;;;2.20;;
53483;SDS011;75581;50.088;19.966;2024-01-15T04:43:50;3.20;;;1.90;;
53483;SDS011;75581;50.088;19.966;2024-01-15T04:46:19;3.50;;;1.90;;
53483;SDS011;75581;50.088;19.966;2024-01-15T04:48:48;3.10;;;2.20;;
53483;SDS011;75581;50.088;19.966;2024-01-15T04:51:17;2.90;;;1.90;;
53483;SDS011;75581;50.088;19.966;2024-01-15T04:53:46;3.60;;;2.30;;
53483;SDS011;75581;50.088;19.966;2024-01-15T04:56:15;2.30;;;1.80;;
53483;SDS011;75581;50.088;19.966;2024-01-15T04:58:44;2.40;;;2.00;;
53483;SDS011;75581;50.088;19.966;2024-01-15T05:01:13;3.40;;;2.10;;
53483;SDS011;75581;50.088;19.966;2024-01-15T05:03:45;3.00;;;2.00;;
53483;SDS011;75581;50.088;19.966;2024-01-15T05:06:14;3.90;;;2.00;;
53483;SDS011;75581;50.088;19.966;2024-01-15T05:08:43;2.60;;;1.80;;
53483;SDS011;75581;50.088;19.966;2024-01-15T05:11:12;3.80;;;2.20;;
53483;SDS011;75581;50.088;19.966;2024-01-15T05:13:41;2.40;;;2.00;;
53483;SDS011;75581;50.088;19.966;2024-01-15T05:16:10;2.60;;;1.80;;
53483;SDS011;75581;50.088;19.966;2024-01-15T05:18:38;2.80;;;2.10;;
53483;SDS011;75581;50.088;19.966;2024-01-15T05:21:10;4.90;;;2.30;;
53483;SDS011;75581;50.088;19.966;2024-01-15T05:23:43;3.20;;;2.30;;
53483;SDS011;75581;50.088;19.966;2024-01-15T05:29:27;3.20;;;2.20;;
53483;SDS011;75581;50.088;19.966;2024-01-15T05:31:56;2.90;;;2.20;;
53483;SDS011;75581;50.088;19.966;2024-01-15T05:34:29;3.00;;;2.10;;
53483;SDS011;75581;50.088;19.966;2024-01-15T05:36:58;3.70;;;2.50;;
53483;SDS011;75581;50.088;19.966;2024-01-15T05:39:28;3.60;;;2.60;;
53483;SDS011;75581;50.088;19.966;2024-01-15T05:41:58;3.60;;;2.40;;
53483;SDS011;75581;50.088;19.966;2024-01-15T05:44:28;3.40;;;2.50;;
53483;SDS011;75581;50.088;19.966;2024-01-15T05:46:57;3.60;;;2.60;;
53483;SDS011;75581;50.088;19.966;2024-01-15T05:49:26;3.20;;;2.20;;
53483;SDS011;75581;50.088;19.966;2024-01-15T05:51:55;4.80;;;3.10;;
53483;SDS011;75581;50.088;19.966;2024-01-15T05:54:24;3.90;;;2.80;;
53483;SDS011;75581;50.088;19.966;2024-01-15T05:56:53;4.00;;;2.60;;
53483;SDS011;75581;50.088;19.966;2024-01-15T05:59:22;3.70;;;2.60;;
53483;SDS011;75581;50.088;19.966;2024-01-15T06:01:51;3.50;;;2.50;;
53483;SDS011;75581;50.088;19.966;2024-01-15T06:04:21;3.80;;;2.60;;
53483;SDS011;75581;50.088;19.966;2024-01-15T06:06:50;3.00;;;2.50;;
53483;SDS011;75581;50.088;19.966;2024-01-15T06:09:19;3.20;;;2.60;;
53483;SDS011;75581;50.088;19.966;2024-01-15T06:11:48;3.90;;;2.50;;
53483;SDS011;75581;50.088;19.966;2024-01-15T06:14:17;4.00;;;2.40;;
53483;SDS011;75581;50.088;19.966;2024-01-15T06:16:46;3.00;;;1.90;;
53483;SDS011;75581;50.088;19.966;2024-01-15T06:19:15;3.80;;;2.50;;
53483;SDS011;75581;50.088;19.966;2024-01-15T06:21:44;3.40;;;2.60;;
53483;SDS011;75581;50.088;19.966;2024-01-15T06:24:13;4.60;;;2.30;;
53483;SDS011;75581;50.088;19.966;2024-01-15T06:26:43;4.40;;;2.60;;
53483;SDS011;75581;50.088;19.966;2024-01-15T06:29:12;3.10;;;2.40;;
53483;SDS011;75581;50.088;19.966;2024-01-15T06:31:41;3.70;;;2.50;;
53483;SDS011;75581;50.088;19.966;2024-01-15T06:34:11;5.00;;;2.90;;
53483;SDS011;75581;50.088;19.966;2024-01-15T06:36:40;5.20;;;3.10;;
53483;SDS011;75581;50.088;19.966;2024-01-15T06:39:10;4.20;;;2.70;;
53483;SDS011;75581;50.088;19.966;2024-01-15T06:41:39;4.00;;;2.50;;
53483;SDS011;75581;50.088;19.966;2024-01-15T06:44:12;4.00;;;2.80;;
53483;SDS011;75581;50.088;19.966;2024-01-15T06:46:42;3.70;;;2.60;;
53483;SDS011;75581;50.088;19.966;2024-01-15T06:49:12;4.00;;;2.40;;
53483;SDS011;75581;50.088;19.966;2024-01-15T06:51:41;4.40;;;3.10;;
53483;SDS011;75581;50.088;19.966;2024-01-15T06:54:12;4.30;;;2.40;;
53483;SDS011;75581;50.088;19.966;2024-01-15T06:56:41;3.50;;;2.40;;
53483;SDS011;75581;50.088;19.966;2024-01-15T06:59:11;4.90;;;3.30;;
53483;SDS011;75581;50.088;19.966;2024-01-15T07:01:42;4.20;;;2.20;;
53483;SDS011;75581;50.088;19.966;2024-01-15T07:04:12;4.00;;;2.80;;
53483;SDS011;75581;50.088;19.966;2024-01-15T07:06:42;4.40;;;3.30;;
53483;SDS011;75581;50.088;19.966;2024-01-15T07:09:11;4.30;;;2.80;;
53483;SDS011;75581;50.088;19.966;2024-01-15T07:11:43;3.20;;;2.10;;
53483;SDS011;75581;50.088;19.966;2024-01-15T07:14:15;4.30;;;3.10;;
53483;SDS011;75581;50.088;19.966;2024-01-15T07:16:44;3.90;;;2.90;;
53483;SDS011;75581;50.088;19.966;2024-01-15T07:19:16;3.60;;;2.60;;
53483;SDS011;75581;50.088;19.966;2024-01-15T07:21:45;4.30;;;3.00;;
53483;SDS011;75581;50.088;19.966;2024-01-15T07:24:14;4.70;;;3.10;;
53483;SDS011;75581;50.088;19.966;2024-01-15T07:26:43;4.20;;;2.90;;
53483;SDS011;75581;50.088;19.966;2024-01-15T07:29:13;5.00;;;3.20;;
53483;SDS011;75581;50.088;19.966;2024-01-15T07:31:47;4.60;;;3.00;;
53483;SDS011;75581;50.088;19.966;2024-01-15T07:34:20;6.00;;;3.60;;
53483;SDS011;75581;50.088;19.966;2024-01-15T07:36:51;5.10;;;3.30;;
53483;SDS011;75581;50.088;19.966;2024-01-15T07:39:20;5.30;;;3.90;;
53483;SDS011;75581;50.088;19.966;2024-01-15T07:41:52;5.60;;;3.70;;
53483;SDS011;75581;50.088;19.966;2024-01-15T07:44:21;6.00;;;3.70;;
53483;SDS011;75581;50.088;19.966;2024-01-15T07:46:50;6.70;;;4.10;;
53483;SDS011;75581;50.088;19.966;2024-01-15T07:49:19;7.20;;;4.70;;
53483;SDS011;75581;50.088;19.966;2024-01-15T07:51:49;6.40;;;4.20;;
53483;SDS011;75581;50.088;19.966;2024-01-15T07:54:18;5.50;;;3.80;;
53483;SDS011;75581;50.088;19.966;2024-01-15T07:59:24;7.30;;;5.20;;
53483;SDS011;75581;50.088;19.966;2024-01-15T08:01:53;7.10;;;4.80;;
53483;SDS011;75581;50.088;19.966;2024-01-15T08:04:22;7.20;;;4.40;;
53483;SDS011;75581;50.088;19.966;2024-01-15T08:06:52;6.90;;;4.70;;
53483;SDS011;75581;50.088;19.966;2024-01-15T08:09:21;5.80;;;3.90;;
53483;SDS011;75581;50.088;19.966;2024-01-15T08:11:51;6.20;;;4.40;;
53483;SDS011;75581;50.088;19.966;2024-01-15T08:14:20;7.50;;;4.30;;
53483;SDS011;75581;50.088;19.966;2024-01-15T08:16:49;5.20;;;3.50;;
53483;SDS011;75581;50.088;19.966;2024-01-15T08:19:19;7.60;;;4.20;;
53483;SDS011;75581;50.088;19.966;2024-01-15T08:21:48;7.30;;;5.40;;
53483;SDS011;75581;50.088;19.966;2024-01-15T08:24:17;10.50;;;5.50;;
53483;SDS011;75581;50.088;19.966;2024-01-15T08:26:47;8.30;;;5.50;;
53483;SDS011;75581;50.088;19.966;2024-01-15T08:29:16;6.60;;;4.30;;
53483;SDS011;75581;50.088;19.966;2024-01-15T08:31:48;5.10;;;3.70;;
53483;SDS011;75581;50.088;19.966;2024-01-15T08:34:18;5.90;;;4.30;;
53483;SDS011;75581;50.088;19.966;2024-01-15T08:36:47;7.20;;;4.40;;
53483;SDS011;75581;50.088;19.966;2024-01-15T08:39:16;7.70;;;5.10;;
53483;SDS011;75581;50.088;19.966;2024-01-15T08:41:46;6.70;;;4.90;;
53483;SDS011;75581;50.088;19.966;2024-01-15T08:44:16;8.80;;;5.90;;
53483;SDS011;75581;50.088;19.966;2024-01-15T08:46:45;6.30;;;4.70;;
53483;SDS011;75581;50.088;19.966;2024-01-15T08:49:14;8.70;;;6.00;;
53483;SDS011;75581;50.088;19.966;2024-01-15T08:51:43;8.50;;;5.90;;
53483;SDS011;75581;50.088;19.966;2024-01-15T08:54:13;7.60;;;5.30;;
53483;SDS011;75581;50.088;19.966;2024-01-15T08:56:43;7.20;;;5.50;;
53483;SDS011;75581;50.088;19.966;2024-01-15T08:59:15;9.00;;;5.20;;
53483;SDS011;75581;50.088;19.966;2024-01-15T09:01:44;7.50;;;4.70;;
53483;SDS011;75581;50.088;19.966;2024-01-15T09:04:14;8.10;;;5.20;;
53483;SDS011;75581;50.088;19.966;2024-01-15T09:06:47;8.20;;;4.80;;
53483;SDS011;75581;50.088;19.966;2024-01-15T09:09:16;6.80;;;4.70;;
53483;SDS011;75581;50.088;19.966;2024-01-15T09:11:46;8.10;;;5.20;;
53483;SDS011;75581;50.088;19.966;2024-01-15T09:14:15;7.70;;;4.70;;
53483;SDS011;75581;50.088;19.966;2024-01-15T09:16:53;7.80;;;5.40;;
53483;SDS011;75581;50.088;19.966;2024-01-15T09:19:22;6.60;;;4.40;;
53483;SDS011;75581;50.088;19.966;2024-01-15T09:21:52;8.30;;;5.20;;
53483;SDS011;75581;50.088;19.966;2024-01-15T09:24:21;7.90;;;5.40;;
53483;SDS011;75581;50.088;19.966;2024-01-15T09:26:56;9.10;;;5.60;;
53483;SDS011;75581;50.088;19.966;2024-01-15T09:29:25;8.10;;;5.70;;
53483;SDS011;75581;50.088;19.966;2024-01-15T09:31:54;6.20;;;4.40;;
53483;SDS011;75581;50.088;19.966;2024-01-15T09:34:24;6.80;;;4.70;;
53483;SDS011;75581;50.088;19.966;2024-01-15T09:36:53;8.80;;;5.50;;
53483;SDS011;75581;50.088;19.966;2024-01-15T09:39:22;7.60;;;6.10;;
53483;SDS011;75581;50.088;19.966;2024-01-15T09:41:52;10.60;;;6.10;;
53483;SDS011;75581;50.088;19.966;2024-01-15T09:44:24;11.60;;;7.40;;
53483;SDS011;75581;50.088;19.966;2024-01-15T09:46:55;9.20;;;6.60;;
53483;SDS011;75581;50.088;19.966;2024-01-15T09:49:25;9.00;;;6.60;;
53483;SDS011;75581;50.088;19.966;2024-01-15T09:51:55;13.10;;;8.00;;
53483;SDS011;75581;50.088;19.966;2024-01-15T09:54:39;12.50;;;7.70;;
53483;SDS011;75581;50.088;19.966;2024-01-15T09:57:09;9.80;;;6.60;;
53483;SDS011;75581;50.088;19.966;2024-01-15T09:59:37;9.00;;;5.60;;
53483;SDS011;75581;50.088;19.966;2024-01-15T10:02:10;12.30;;;7.60;;
53483;SDS011;75581;50.088;19.966;2024-01-15T10:04:45;10.80;;;7.80;;
53483;SDS011;75581;50.088;19.966;2024-01-15T10:07:15;9.50;;;6.10;;
53483;SDS011;75581;50.088;19.966;2024-01-15T10:09:47;11.20;;;7.00;;
53483;SDS011;75581;50.088;19.966;2024-01-15T10:12:17;9.70;;;6.60;;
53483;SDS011;75581;50.088;19.966;2024-01-15T10:14:46;12.30;;;8.30;;
53483;SDS011;75581;50.088;19.966;2024-01-15T10:17:15;14.10;;;9.10;;
53483;SDS011;75581;50.088;19.966;2024-01-15T10:19:47;11.90;;;7.50;;
53483;SDS011;75581;50.088;19.966;2024-01-15T10:22:18;10.80;;;7.50;;
53483;SDS011;75581;50.088;19.966;2024-01-15T10:24:47;11.70;;;7.40;;
53483;SDS011;75581;50.088;19.966;2024-01-15T10:27:17;10.90;;;7.90;;
53483;SDS011;75581;50.088;19.966;2024-01-15T10:29:46;10.50;;;6.80;;
53483;SDS011;75581;50.088;19.966;2024-01-15T10:32:15;13.20;;;8.80;;
53483;SDS011;75581;50.088;19.966;2024-01-15T10:34:44;12.80;;;8.70;;
53483;SDS011;75581;50.088;19.966;2024-01-15T10:37:14;15.70;;;8.40;;
53483;SDS011;75581;50.088;19.966;2024-01-15T10:39:44;14.70;;;8.90;;
53483;SDS011;75581;50.088;19.966;2024-01-15T10:42:15;15.00;;;8.90;;
53483;SDS011;75581;50.088;19.966;2024-01-15T10:44:46;18.40;;;9.70;;
53483;SDS011;75581;50.088;19.966;2024-01-15T10:47:15;13.60;;;8.30;;
53483;SDS011;75581;50.088;19.966;2024-01-15T10:49:44;15.60;;;9.40;;
53483;SDS011;75581;50.088;19.966;2024-01-15T10:52:15;14.10;;;8.90;;
53483;SDS011;75581;50.088;19.966;2024-01-15T10:54:44;16.40;;;9.80;;
53483;SDS011;75581;50.088;19.966;2024-01-15T10:57:15;15.20;;;9.60;;
53483;SDS011;75581;50.088;19.966;2024-01-15T10:59:45;13.30;;;8.40;;
53483;SDS011;75581;50.088;19.966;2024-01-15T11:02:14;11.40;;;7.30;;
53483;SDS011;75581;50.088;19.966;2024-01-15T11:04:44;10.60;;;6.70;;
53483;SDS011;75581;50.088;19.966;2024-01-15T11:07:14;15.70;;;9.70;;
53483;SDS011;75581;50.088;19.966;2024-01-15T11:09:43;13.80;;;8.90;;
53483;SDS011;75581;50.088;19.966;2024-01-15T11:12:15;15.20;;;9.00;;
53483;SDS011;75581;50.088;19.966;2024-01-15T11:14:48;15.60;;;8.50;;
53483;SDS011;75581;50.088;19.966;2024-01-15T11:17:18;12.90;;;7.50;;
53483;SDS011;75581;50.088;19.966;2024-01-15T11:19:48;13.90;;;8.60;;
53483;SDS011;75581;50.088;19.966;2024-01-15T11:25:03;16.40;;;8.80;;
53483;SDS011;75581;50.088;19.966;2024-01-15T11:30:24;13.00;;;8.10;;
53483;SDS011;75581;50.088;19.966;2024-01-15T11:32:55;13.00;;;8.00;;
53483;SDS011;75581;50.088;19.966;2024-01-15T11:35:24;14.10;;;7.20;;
53483;SDS011;75581;50.088;19.966;2024-01-15T11:38:28;13.20;;;8.60;;
53483;SDS011;75581;50.088;19.966;2024-01-15T11:40:58;14.40;;;8.00;;
53483;SDS011;75581;50.088;19.966;2024-01-15T11:43:28;13.90;;;8.60;;
53483;SDS011;75581;50.088;19.966;2024-01-15T11:46:00;13.50;;;8.60;;
53483;SDS011;75581;50.088;19.966;2024-01-15T11:48:34;14.40;;;9.40;;
53483;SDS011;75581;50.088;19.966;2024-01-15T11:51:14;15.40;;;9.50;;
53483;SDS011;75581;50.088;19.966;2024-01-15T11:53:47;12.80;;;8.70;;
53483;SDS011;75581;50.088;19.966;2024-01-15T11:56:17;9.90;;;6.40;;
53483;SDS011;75581;50.088;19.966;2024-01-15T11:58:50;12.20;;;8.20;;
53483;SDS011;75581;50.088;19.966;2024-01-15T12:01:19;13.70;;;9.00;;
53483;SDS011;75581;50.088;19.966;2024-01-15T12:03:50;14.60;;;9.70;;
53483;SDS011;75581;50.088;19.966;2024-01-15T12:06:19;13.40;;;8.70;;
53483;SDS011;75581;50.088;19.966;2024-01-15T12:08:48;12.40;;;8.70;;
53483;SDS011;75581;50.088;19.966;2024-01-15T12:11:16;12.70;;;8.90;;
53483;SDS011;75581;50.088;19.966;2024-01-15T12:13:49;14.20;;;9.10;;
53483;SDS011;75581;50.088;19.966;2024-01-15T12:16:21;10.20;;;6.20;;
53483;SDS011;75581;50.088;19.966;2024-01-15T12:18:50;13.50;;;8.10;;
53483;SDS011;75581;50.088;19.966;2024-01-15T12:21:19;10.30;;;7.20;;
53483;SDS011;75581;50.088;19.966;2024-01-15T12:23:48;9.70;;;6.90;;
53483;SDS011;75581;50.088;19.966;2024-01-15T12:26:18;12.70;;;8.30;;
53483;SDS011;75581;50.088;19.966;2024-01-15T12:28:49;12.70;;;8.40;;
53483;SDS011;75581;50.088;19.966;2024-01-15T12:31:23;15.40;;;9.40;;
53483;SDS011;75581;50.088;19.966;2024-01-15T12:33:52;10.30;;;7.50;;
53483;SDS011;75581;50.088;19.966;2024-01-15T12:36:21;12.90;;;8.70;;
53483;SDS011;75581;50.088;19.966;2024-01-15T12:38:51;12.00;;;7.90;;
53483;SDS011;75581;50.088;19.966;2024-01-15T12:41:20;12.00;;;6.90;;
53483;SDS011;75581;50.088;19.966;2024-01-15T12:43:49;11.50;;;8.20;;
53483;SDS011;75581;50.088;19.966;2024-01-15T12:46:19;11.30;;;7.80;;
53483;SDS011;75581;50.088;19.966;2024-01-15T12:48:49;13.20;;;8.60;;
53483;SDS011;75581;50.088;19.966;2024-01-15T12:51:18;12.30;;;8.20;;
53483;SDS011;75581;50.088;19.966;2024-01-15T12:53:54;11.30;;;7.40;;
53483;SDS011;75581;50.088;19.966;2024-01-15T12:56:23;11.90;;;7.90;;
53483;SDS011;75581;50.088;19.966;2024-01-15T12:58:52;10.40;;;7.30;;
53483;SDS011;75581;50.088;19.966;2024-01-15T13:01:21;13.80;;;9.10;;
53483;SDS011;75581;50.088;19.966;2024-01-15T13:03:51;12.60;;;7.50;;
53483;SDS011;75581;50.088;19.966;2024-01-15T13:06:20;11.70;;;7.50;;
53483;SDS011;75581;50.088;19.966;2024-01-15T13:08:50;10.50;;;7.20;;
53483;SDS011;75581;50.088;19.966;2024-01-15T13:11:19;9.20;;;6.60;;
53483;SDS011;75581;50.088;19.966;2024-01-15T13:13:48;13.50;;;8.40;;
53483;SDS011;75581;50.088;19.966;2024-01-15T13:16:18;11.50;;;7.90;;
53483;SDS011;75581;50.088;19.966;2024-01-15T13:18:53;14.10;;;8.40;;
53483;SDS011;75581;50.088;19.966;2024-01-15T13:21:22;9.80;;;5.90;;
53483;SDS011;75581;50.088;19.966;2024-01-15T13:23:51;12.20;;;7.80;;
53483;SDS011;75581;50.088;19.966;2024-01-15T13:26:21;13.50;;;8.40;;
53483;SDS011;75581;50.088;19.966;2024-01-15T13:28:50;12.10;;;8.70;;
53483;SDS011;75581;50.088;19.966;2024-01-15T13:31:19;12.20;;;8.40;;
53483;SDS011;75581;50.088;19.966;2024-01-15T13:33:49;12.50;;;8.60;;
53483;SDS011;75581;50.088;19.966;2024-01-15T13:36:18;13.40;;;7.90;;
53483;SDS011;75581;50.088;19.966;2024-01-15T13:38:50;12.10;;;7.20;;
53483;SDS011;75581;50.088;19.966;2024-01-15T13:41:21;11.80;;;8.20;;
53483;SDS011;75581;50.088;19.966;2024-01-15T13:43:55;11.90;;;7.80;;
53483;SDS011;75581;50.088;19.966;2024-01-15T13:46:25;13.40;;;8.20;;
53483;SDS011;75581;50.088;19.966;2024-01-15T13:48:58;15.30;;;8.90;;
53483;SDS011;75581;50.088;19.966;2024-01-15T13:51:27;12.60;;;8.60;;
53483;SDS011;75581;50.088;19.966;2024-01-15T13:53:57;11.40;;;7.00;;
53483;SDS011;75581;50.088;19.966;2024-01-15T13:56:26;15.70;;;8.90;;
53483;SDS011;75581;50.088;19.966;2024-01-15T13:59:00;14.30;;;8.90;;
53483;SDS011;75581;50.088;19.966;2024-01-15T14:01:29;15.00;;;8.20;;
53483;SDS011;75581;50.088;19.966;2024-01-15T14:04:00;9.80;;;6.90;;
53483;SDS011;75581;50.088;19.966;2024-01-15T14:06:29;13.60;;;8.20;;
53483;SDS011;75581;50.088;19.966;2024-01-15T14:08:58;12.70;;;8.40;;
53483;SDS011;75581;50.088;19.966;2024-01-15T14:11:28;13.70;;;8.60;;
53483;SDS011;75581;50.088;19.966;2024-01-15T14:13:57;15.50;;;9.20;;
53483;SDS011;75581;50.088;19.966;2024-01-15T14:16:26;13.10;;;8.50;;
53483;SDS011;75581;50.088;19.966;2024-01-15T14:18:56;12.80;;;7.80;;
53483;SDS011;75581;50.088;19.966;2024-01-15T14:21:25;11.50;;;7.50;;
53483;SDS011;75581;50.088;19.966;2024-01-15T14:23:54;10.00;;;6.20;;
53483;SDS011;75581;50.088;19.966;2024-01-15T14:26:24;9.50;;;5.60;;
53483;SDS011;75581;50.088;19.966;2024-01-15T14:28:53;12.00;;;7.30;;
53483;SDS011;75581;50.088;19.966;2024-01-15T14:31:23;14.50;;;8.50;;
53483;SDS011;75581;50.088;19.966;2024-01-15T14:33:58;14.70;;;8.70;;
53483;SDS011;75581;50.088;19.966;2024-01-15T14:36:28;12.20;;;7.50;;
53483;SDS011;75581;50.088;19.966;2024-01-15T14:38:58;11.10;;;7.50;;
53483;SDS011;75581;50.088;19.966;2024-01-15T14:41:28;10.80;;;7.50;;
53483;SDS011;75581;50.088;19.966;2024-01-15T14:43:58;13.70;;;8.10;;
53483;SDS011;75581;50.088;19.966;2024-01-15T14:46:27;11.60;;;7.70;;
53483;SDS011;75581;50.088;19.966;2024-01-15T14:48:58;10.70;;;7.20;;
53483;SDS011;75581;50.088;19.966;2024-01-15T14:51:28;10.20;;;6.50;;
53483;SDS011;75581;50.088;19.966;2024-01-15T14:53:57;10.60;;;6.60;;
53483;SDS011;75581;50.088;19.966;2024-01-15T14:56:26;10.70;;;6.10;;
53483;SDS011;75581;50.088;19.966;2024-01-15T14:58:56;13.10;;;8.00;;
53483;SDS011;75581;50.088;19.966;2024-01-15T15:01:25;11.80;;;7.40;;